Trampas, NM (87576)

9:41 AM MDT on August 30, 2014 (GMT -0600)
Bell Mountain Ranch | Change Station
CLOSE
Current Station
Personal Weather Station
Location: Vadito, NM
Elevation: 7660 ft
Nearby Weather Stations

Elev 7660 ft 36.19 °N, 105.66 °W | Updated 1 minute ago

Clear
Clear
69.6 °F
Feels Like 69.6 °F
N
3.1
Wind Variable Wind from West
Gusts 3.1 mph

Today
High -- | Low -- °F
--% Chance of Precip.
Yesterday
High -- | Low -- °F
Precip. -- in
6:32 AM 7:32 PM
Waxing Crescent, 22% visible
Pressure 30.38 in
Visibility 10.0 miles
Clouds Clear
Dew Point 46 °F
Humidity 42%
Rainfall 0.00 in
Snow Depth 0 in
UV 5 out of 12
Pollen 8.70 out of 12
Air Quality Not available.
Flu Activity Not available.
METAR KAXX 301535Z AUTO 00000KT 10SM CLR 13/06 A3038 RMK AO2 T01260063

More Conditions Fewer Conditions

Pressure 30.38 in
Visibility 10.0 miles
Clouds Clear
Dew Point 46 °F
Humidity 42%
Rainfall 0.00 in
Snow Depth 0 in
UV 5 out of 12
Pollen 8.70 out of 12
Air Quality Not available.
Flu Activity Not available.
METAR KAXX 301535Z AUTO 00000KT 10SM CLR 13/06 A3038 RMK AO2 T01260063

More Conditions Fewer Conditions

10-Day Weather Forecast

Almanac

Astronomy

Aug. 30, 2014 Rise Set
Actual Time 6:32 AM MDT 7:32 PM MDT
Civil Twilight 6:06 AM MDT 7:59 PM MDT
Nautical Twilight 5:34 AM MDT 8:30 PM MDT
Astronomical Twilight 5:02 AM MDT 9:02 PM MDT
Moon 11:13 AM MDT 10:19 PM MDT
Length of Visible Light 13h 52m
Length of Day
13h 00m
Tomorrow will be 2m 11s shorter.
Waxing Crescent, 22% of the Moon is Illuminated
Today
Waxing Crescent
Sep 2
First Quarter
Sep 8
Full
Sep 15
Last Quarter
Sep 24
New

Today's Extremes

State Highs State Lows

Community

WunderPhotos

Upload Photos

1,748,550 photos uploaded!

WunderBlogs® & News

Nearby

Snow Depth

Station Depth Elevation
Gallegos Peak 0 in 9800 ft
Wesner Springs 1 in 11120 ft
Red River Pass #2 0 in 9850 ft
Quemazon 1 in 9500 ft
Bateman 0 in 9300 ft

Earthquake Activity

City Distance Mag. Time & Date
No recent earthquake activity has been reported nearby.
Minimum magnitude displayed is 2.5.

Coastal Water Temperatures

Place Temperature
No Stations Reporting

Nearby Weather Stations